Aviation Digital Data Service (ADDS)

Output produced by METARs form (0428 UTC 26 May 2018)
found at http://www.aviationweather.gov/adds/metars/
 
KYIP 252320Z 2600/2624 18005KT P6SM SCT250 
     FM261200 22006KT P6SM BKN200 
     FM261500 22008KT P6SM SCT050 BKN200 
     FM262000 17008KT P6SM OVC100
       
KYKM 260404Z 2604/2624 33010G16KT P6SM BKN130 OVC250 
     FM260800 34010G18KT P6SM SKC 
     FM261200 32005KT P6SM SKC 
     FM261700 31012KT P6SM SKC
       
KYNG 252323Z 2600/2624 22006KT P6SM FEW250 
     FM261400 22006KT P6SM BKN250 
     FM262000 22008KT P6SM BKN100